VKG404 ESOK-LGRP
Flight info
| Callsign | VKG404 |
|---|---|
| Flight time | N/A |
| Altitude | 33000 |
| Route | NEFYN DCT PENOR N133 LENOV DCT KEKED DCT NARKA/N0447F350 DCT VASIS DCT LOMOS DCT NIKTI UN127 LMO UL618 MES UN139 LURUS UL995 CODIC |
| Aircraft | A321/M-SDE3FGHIRWY/LB1 |
Departure
| Time | N/A |
|---|---|
| Airport | Karlstad Airport (ESOK) |
Arrival
| Time | 2026-04-29 10:39 |
|---|---|
| Airport | Rhodes International Airport "Diagoras" (LGRP) |
| Time | Latitude | Longitude | Altitude | Speed | Heading |
|---|---|---|---|---|---|
| 2026-04-29 10:30 | 36.41574 | 28.09968 | 12537 ft | 366 kts | 99° |
| 2026-04-29 10:30 | 36.41149 | 28.13058 | 11488 ft | 361 kts | 98° |
| 2026-04-29 10:31 | 36.40729 | 28.16098 | 10510 ft | 354 kts | 98° |
| 2026-04-29 10:31 | 36.40322 | 28.19044 | 9557 ft | 348 kts | 98° |
| 2026-04-29 10:31 | 36.39918 | 28.21980 | 8532 ft | 342 kts | 98° |
| 2026-04-29 10:31 | 36.39520 | 28.24861 | 7554 ft | 336 kts | 98° |
| 2026-04-29 10:32 | 36.39127 | 28.27692 | 6625 ft | 330 kts | 99° |
| 2026-04-29 10:32 | 36.38739 | 28.30489 | 6166 ft | 329 kts | 99° |
| 2026-04-29 10:32 | 36.38444 | 28.33277 | 5712 ft | 317 kts | 88° |
| 2026-04-29 10:32 | 36.38935 | 28.35814 | 5268 ft | 294 kts | 61° |
| 2026-04-29 10:33 | 36.40187 | 28.37692 | 4823 ft | 276 kts | 36° |
| 2026-04-29 10:33 | 36.41856 | 28.38695 | 4370 ft | 261 kts | 12° |
| 2026-04-29 10:33 | 36.43619 | 28.38799 | 3945 ft | 248 kts | 349° |
| 2026-04-29 10:33 | 36.45205 | 28.38090 | 3825 ft | 241 kts | 328° |
| 2026-04-29 10:34 | 36.46468 | 28.36744 | 3734 ft | 240 kts | 307° |
| 2026-04-29 10:34 | 36.47249 | 28.34923 | 3627 ft | 240 kts | 286° |
| 2026-04-29 10:34 | 36.47437 | 28.32877 | 3538 ft | 239 kts | 264° |
| 2026-04-29 10:34 | 36.47033 | 28.30876 | 3353 ft | 240 kts | 250° |
| 2026-04-29 10:35 | 36.46462 | 28.28934 | 3066 ft | 239 kts | 250° |
| 2026-04-29 10:35 | 36.45896 | 28.27001 | 2772 ft | 237 kts | 250° |
| 2026-04-29 10:35 | 36.45343 | 28.25099 | 2452 ft | 232 kts | 250° |
| 2026-04-29 10:35 | 36.44803 | 28.23243 | 2147 ft | 223 kts | 251° |
| 2026-04-29 10:36 | 36.44289 | 28.21481 | 1867 ft | 210 kts | 251° |
| 2026-04-29 10:36 | 36.43813 | 28.19844 | 1617 ft | 192 kts | 251° |
| 2026-04-29 10:36 | 36.43393 | 28.18406 | 1411 ft | 165 kts | 252° |
| 2026-04-29 10:36 | 36.43017 | 28.17122 | 1080 ft | 153 kts | 251° |
| 2026-04-29 10:37 | 36.42664 | 28.15906 | 927 ft | 148 kts | 250° |
| 2026-04-29 10:37 | 36.42317 | 28.14716 | 818 ft | 145 kts | 252° |
| 2026-04-29 10:37 | 36.41980 | 28.13555 | 589 ft | 141 kts | 251° |
| 2026-04-29 10:37 | 36.41652 | 28.12419 | 432 ft | 139 kts | 252° |
| 2026-04-29 10:38 | 36.41324 | 28.11297 | 274 ft | 137 kts | 250° |
| 2026-04-29 10:38 | 36.41004 | 28.10201 | 51 ft | 135 kts | 250° |
| 2026-04-29 10:38 | 36.40706 | 28.09194 | 31 ft | 107 kts | 250° |
| 2026-04-29 10:38 | 36.40520 | 28.08556 | 28 ft | 55 kts | 250° |
| 2026-04-29 10:39 | 36.40424 | 28.08218 | 28 ft | 35 kts | 248° |
| 2026-04-29 10:39 | 36.40333 | 28.08020 | 29 ft | 23 kts | 227° |
| 2026-04-29 10:39 | 36.40228 | 28.07900 | 28 ft | 11 kts | 224° |
| 2026-04-29 10:39 | 36.40168 | 28.07879 | 28 ft | 9 kts | 149° |
| 2026-04-29 10:40 | 36.40158 | 28.07940 | 28 ft | 7 kts | 78° |
| 2026-04-29 10:40 | 36.40177 | 28.08012 | 28 ft | 13 kts | 70° |
| 2026-04-29 10:40 | 36.40218 | 28.08149 | 28 ft | 18 kts | 70° |
| 2026-04-29 10:40 | 36.40259 | 28.08288 | 28 ft | 16 kts | 70° |
| 2026-04-29 10:41 | 36.40296 | 28.08415 | 28 ft | 15 kts | 71° |
| 2026-04-29 10:41 | 36.40328 | 28.08530 | 28 ft | 13 kts | 68° |
| 2026-04-29 10:41 | 36.40359 | 28.08630 | 28 ft | 12 kts | 70° |
| 2026-04-29 10:41 | 36.40386 | 28.08721 | 28 ft | 10 kts | 70° |
| 2026-04-29 10:42 | 36.40402 | 28.08802 | 28 ft | 9 kts | 84° |
| 2026-04-29 10:42 | 36.40399 | 28.08875 | 28 ft | 8 kts | 95° |
| 2026-04-29 10:42 | 36.40393 | 28.08937 | 28 ft | 6 kts | 109° |
| 2026-04-29 10:42 | 36.40360 | 28.08964 | 28 ft | 5 kts | 159° |
| 2026-04-29 10:43 | 36.40333 | 28.08977 | 28 ft | 2 kts | 160° |
| 2026-04-29 10:43 | 36.40326 | 28.08980 | 28 ft | 0 kts | 160° |